Time;durP1;ratioP1;P1;durP2;ratioP2;P2;SDS_P1;SDS_P2;PMS_P1;PMS_P2;Temp;Humidity;BMP_temperature;BMP_pressure;BME280_temperature;BME280_humidity;BME280_pressure;Samples;Min_cycle;Max_cycle;Signal;HPM_P1;HPM_P2
2022/10/04 00:03:01;;;;;;;25.60;9.03;;;;;;;;;;10559820;28;20405;-75
2022/10/04 00:08:21;;;;;;;21.60;9.40;;;;;;;;;;10567684;28;20544;-75
2022/10/04 00:13:26;;;;;;;22.15;8.70;;;;;;;;;;10578786;27;20491;-76
2022/10/04 00:18:30;;;;;;;20.55;8.13;;;;;;;;;;10576383;27;20117;-74
2022/10/04 00:23:47;;;;;;;18.52;7.93;;;;;;;;;;10578203;27;20048;-75
2022/10/04 00:28:52;;;;;;;21.40;8.10;;;;;;;;;;10580921;27;20048;-76
2022/10/04 00:33:54;;;;;;;;;;;;;;;;;;10575501;27;20046;-75
2022/10/04 00:39:13;;;;;;;19.00;7.88;;;;;;;;;;10577085;27;19985;-76
2022/10/04 00:44:19;;;;;;;15.55;7.40;;;;;;;;;;10561532;27;20044;-76
2022/10/04 00:49:23;;;;;;;18.17;7.22;;;;;;;;;;10570176;27;20134;-76
2022/10/04 00:54:26;;;;;;;;;;;;;;;;;;10562686;28;20039;-76
2022/10/04 00:59:43;;;;;;;16.00;6.90;;;;;;;;;;10583446;27;20285;-75
2022/10/04 01:04:49;;;;;;;18.98;7.32;;;;;;;;;;10565876;28;20112;-76
2022/10/04 01:09:54;;;;;;;17.05;7.40;;;;;;;;;;10570072;28;20046;-76
2022/10/04 01:15:02;;;;;;;16.70;7.22;;;;;;;;;;10575652;27;20043;-75
2022/10/04 01:20:26;;;;;;;18.45;7.85;;;;;;;;;;10549836;28;20127;-76
2022/10/04 01:25:46;;;;;;;20.80;7.37;;;;;;;;;;10567536;27;20119;-76
2022/10/04 01:30:49;;;;;;;19.42;7.03;;;;;;;;;;10566522;27;20122;-75
2022/10/04 01:35:52;;;;;;;19.38;7.72;;;;;;;;;;10565729;27;20136;-76
2022/10/04 01:40:59;;;;;;;19.30;7.38;;;;;;;;;;10568075;28;20051;-76
2022/10/04 01:46:05;;;;;;;21.77;8.18;;;;;;;;;;10567317;27;20089;-75
2022/10/04 01:51:13;;;;;;;17.63;7.50;;;;;;;;;;10571649;27;20047;-76
2022/10/04 01:56:19;;;;;;;16.42;7.28;;;;;;;;;;10544378;27;20054;-77
2022/10/04 02:01:25;;;;;;;13.55;6.90;;;;;;;;;;10569669;28;20047;-76
2022/10/04 02:06:29;;;;;;;14.95;6.78;;;;;;;;;;10578038;27;20198;-75
2022/10/04 02:11:32;;;;;;;;;;;;;;;;;;10565029;27;20512;-77
2022/10/04 02:16:38;;;;;;;14.10;5.95;;;;;;;;;;10569345;27;19931;-75
2022/10/04 02:21:41;;;;;;;14.35;6.10;;;;;;;;;;10566474;28;20070;-76
2022/10/04 02:26:49;;;;;;;16.20;6.28;;;;;;;;;;10571889;27;20044;-75
2022/10/04 02:37:14;;;;;;;15.02;5.78;;;;;;;;;;10570871;27;20127;-75
2022/10/04 02:42:20;;;;;;;19.88;7.22;;;;;;;;;;10572233;27;20036;-75
2022/10/04 02:47:28;;;;;;;13.68;6.35;;;;;;;;;;10566224;28;20127;-76
2022/10/04 02:52:33;;;;;;;17.40;6.95;;;;;;;;;;10568040;27;20405;-77
2022/10/04 02:57:36;;;;;;;15.23;6.15;;;;;;;;;;10565484;27;20433;-76
2022/10/04 03:02:40;;;;;;;14.82;6.28;;;;;;;;;;10569892;27;20054;-76
2022/10/04 03:07:44;;;;;;;14.38;6.15;;;;;;;;;;10563793;27;20032;-76
2022/10/04 03:12:50;;;;;;;14.13;5.50;;;;;;;;;;10545755;28;20138;-76
2022/10/04 03:17:54;;;;;;;14.18;5.90;;;;;;;;;;10566992;27;20031;-75
2022/10/04 03:22:57;;;;;;;10.70;4.15;;;;;;;;;;10571549;27;20039;-76
2022/10/04 03:28:01;;;;;;;12.23;4.60;;;;;;;;;;10567994;27;20241;-77
2022/10/04 03:33:06;;;;;;;8.35;3.70;;;;;;;;;;10558370;27;20036;-76
2022/10/04 03:38:11;;;;;;;7.78;4.13;;;;;;;;;;10563366;27;20039;-76
2022/10/04 03:43:14;;;;;;;10.45;4.40;;;;;;;;;;10563633;28;20055;-76
2022/10/04 03:48:25;;;;;;;10.20;5.03;;;;;;;;;;10566040;27;20040;-76
2022/10/04 03:53:30;;;;;;;7.47;3.33;;;;;;;;;;10561624;28;20379;-75
2022/10/04 03:58:33;;;;;;;12.30;3.95;;;;;;;;;;10570139;27;20469;-76
2022/10/04 04:03:42;;;;;;;9.45;4.18;;;;;;;;;;10551321;28;20498;-75
2022/10/04 04:08:46;;;;;;;9.95;4.45;;;;;;;;;;10562756;28;20035;-76
2022/10/04 04:13:49;;;;;;;;;;;;;;;;;;10564465;28;20040;-76
2022/10/04 04:18:55;;;;;;;8.35;3.20;;;;;;;;;;10566120;28;20011;-77
2022/10/04 04:23:59;;;;;;;6.85;3.20;;;;;;;;;;10562579;28;20043;-76
2022/10/04 04:29:05;;;;;;;10.98;3.75;;;;;;;;;;10559242;28;20035;-77
2022/10/04 04:34:17;;;;;;;13.77;4.05;;;;;;;;;;10559050;28;20070;-78
2022/10/04 04:39:39;;;;;;;7.68;4.05;;;;;;;;;;10552653;28;20042;-76
2022/10/04 04:44:47;;;;;;;8.65;4.38;;;;;;;;;;10558601;28;20040;-75
2022/10/04 04:49:51;;;;;;;10.23;4.15;;;;;;;;;;10558236;28;20051;-76
2022/10/04 04:54:56;;;;;;;12.43;4.40;;;;;;;;;;10564730;28;20040;-76
2022/10/04 05:00:00;;;;;;;10.23;4.00;;;;;;;;;;10582538;27;20089;-76
2022/10/04 05:05:14;;;;;;;10.60;3.75;;;;;;;;;;10578477;28;20047;-77
2022/10/04 05:10:30;;;;;;;14.27;4.68;;;;;;;;;;10576195;27;20192;-76
2022/10/04 05:15:34;;;;;;;11.68;4.07;;;;;;;;;;10572483;27;20115;-77
2022/10/04 05:20:38;;;;;;;12.05;4.18;;;;;;;;;;10571231;27;20168;-77
2022/10/04 05:25:41;;;;;;;11.20;4.45;;;;;;;;;;10565633;27;20043;-76
2022/10/04 05:30:48;;;;;;;9.52;4.20;;;;;;;;;;10577893;27;20036;-76
2022/10/04 05:36:01;;;;;;;7.82;3.88;;;;;;;;;;10561294;28;20047;-76
2022/10/04 05:41:06;;;;;;;13.23;4.50;;;;;;;;;;10562808;27;20036;-77
2022/10/04 05:46:15;;;;;;;8.07;3.80;;;;;;;;;;10571331;28;20057;-76
2022/10/04 05:51:20;;;;;;;6.53;3.13;;;;;;;;;;10586185;27;20116;-77
2022/10/04 05:56:39;;;;;;;9.23;2.95;;;;;;;;;;10542218;28;20047;-78
2022/10/04 06:01:54;;;;;;;9.35;3.65;;;;;;;;;;10553468;28;20153;-78
2022/10/04 06:07:01;;;;;;;10.38;3.83;;;;;;;;;;10571003;28;20089;-77
2022/10/04 06:12:08;;;;;;;9.35;3.30;;;;;;;;;;10566406;28;20040;-77
2022/10/04 06:17:23;;;;;;;9.65;3.63;;;;;;;;;;10565825;28;20036;-77
2022/10/04 06:22:27;;;;;;;9.68;3.35;;;;;;;;;;10563248;28;20040;-78
2022/10/04 06:27:32;;;;;;;9.00;3.38;;;;;;;;;;10566358;28;20058;-78
2022/10/04 06:32:49;;;;;;;5.22;2.78;;;;;;;;;;10568652;28;20052;-78
2022/10/04 06:38:05;;;;;;;6.82;3.08;;;;;;;;;;10566572;28;20035;-77
2022/10/04 06:43:15;;;;;;;6.53;3.25;;;;;;;;;;10576667;27;20047;-76
2022/10/04 06:48:25;;;;;;;6.60;3.03;;;;;;;;;;10543704;28;20070;-77
2022/10/04 06:53:43;;;;;;;7.60;3.78;;;;;;;;;;10554669;28;20043;-77
2022/10/04 06:59:12;;;;;;;8.88;3.45;;;;;;;;;;10565909;28;20042;-77
2022/10/04 07:04:21;;;;;;;7.25;3.70;;;;;;;;;;10562850;28;20165;-77
2022/10/04 07:09:27;;;;;;;8.63;3.50;;;;;;;;;;10558531;28;20436;-77
2022/10/04 07:14:34;;;;;;;6.57;3.45;;;;;;;;;;10560894;28;20360;-77
2022/10/04 07:19:38;;;;;;;10.43;3.78;;;;;;;;;;10563135;28;20046;-77
2022/10/04 07:24:49;;;;;;;7.10;1.77;;;;;;;;;;10552740;28;20046;-77
2022/10/04 07:29:53;;;;;;;5.38;2.80;;;;;;;;;;10560729;28;20042;-77
2022/10/04 07:34:59;;;;;;;8.73;3.58;;;;;;;;;;10558038;28;20051;-77
2022/10/04 07:40:07;;;;;;;8.35;3.63;;;;;;;;;;10558111;28;20108;-78
2022/10/04 07:45:14;;;;;;;3.88;2.15;;;;;;;;;;10559288;28;20531;-77
2022/10/04 07:50:22;;;;;;;9.27;4.07;;;;;;;;;;10539282;28;20051;-78
2022/10/04 07:55:28;;;;;;;5.55;3.38;;;;;;;;;;10559865;28;20066;-78
2022/10/04 08:00:36;;;;;;;6.55;3.03;;;;;;;;;;10555574;28;20052;-78
2022/10/04 08:05:41;;;;;;;7.05;3.33;;;;;;;;;;10566097;28;20049;-78
2022/10/04 08:10:55;;;;;;;7.97;3.50;;;;;;;;;;10525681;28;20038;-78
2022/10/04 08:16:02;;;;;;;7.03;3.42;;;;;;;;;;10511102;28;20524;-77
2022/10/04 08:21:06;;;;;;;5.25;3.38;;;;;;;;;;10514431;28;20124;-77
2022/10/04 08:26:22;;;;;;;5.93;3.65;;;;;;;;;;10515780;28;20048;-77
2022/10/04 08:31:31;;;;;;;8.48;3.58;;;;;;;;;;10527531;28;20024;-77
2022/10/04 08:36:42;;;;;;;7.10;3.78;;;;;;;;;;10562814;28;20054;-77
2022/10/04 08:42:03;;;;;;;3.92;2.97;;;;;;;;;;10559989;28;20093;-77
2022/10/04 08:47:30;;;;;;;4.55;2.72;;;;;;;;;;10571378;28;20035;-77
2022/10/04 08:52:42;;;;;;;7.30;3.58;;;;;;;;;;10565416;28;20044;-78
2022/10/04 08:57:56;;;;;;;5.28;3.25;;;;;;;;;;10569425;28;20047;-77
2022/10/04 09:03:16;;;;;;;5.60;3.58;;;;;;;;;;10559827;28;20071;-77
2022/10/04 09:08:40;;;;;;;5.50;3.25;;;;;;;;;;10556852;28;20373;-77
2022/10/04 09:13:57;;;;;;;8.07;3.70;;;;;;;;;;10565548;28;20044;-77
2022/10/04 09:19:17;;;;;;;6.70;2.90;;;;;;;;;;10563975;28;20036;-77
2022/10/04 09:24:38;;;;;;;4.63;2.42;;;;;;;;;;10560236;28;20071;-77
2022/10/04 09:29:52;;;;;;;6.55;3.20;;;;;;;;;;10557823;28;20120;-76
2022/10/04 09:35:07;;;;;;;5.47;3.40;;;;;;;;;;10563690;27;20481;-77
2022/10/04 09:40:21;;;;;;;8.07;2.97;;;;;;;;;;10569598;28;20499;-77
2022/10/04 09:45:30;;;;;;;6.78;2.72;;;;;;;;;;10561990;27;20043;-77
2022/10/04 09:50:52;;;;;;;6.28;2.70;;;;;;;;;;10559135;28;20399;-78
2022/10/04 09:56:04;;;;;;;3.87;2.80;;;;;;;;;;10561099;28;20048;-78
2022/10/04 10:01:23;;;;;;;4.15;2.70;;;;;;;;;;10565803;28;20170;-77
2022/10/04 10:06:40;;;;;;;6.03;2.85;;;;;;;;;;10565362;28;20057;-77
2022/10/04 10:17:16;;;;;;;4.55;2.60;;;;;;;;;;10562157;28;20046;-78
2022/10/04 10:22:37;;;;;;;5.13;2.58;;;;;;;;;;10546439;28;20024;-78
2022/10/04 10:27:51;;;;;;;5.22;2.60;;;;;;;;;;10567514;27;20042;-78
2022/10/04 10:33:08;;;;;;;2.83;2.55;;;;;;;;;;10543819;28;20381;-78
2022/10/04 10:38:24;;;;;;;5.72;2.67;;;;;;;;;;10562966;28;20032;-78
2022/10/04 10:43:40;;;;;;;6.50;3.08;;;;;;;;;;10560653;28;20041;-77
2022/10/04 10:48:55;;;;;;;4.88;3.00;;;;;;;;;;10568458;28;20452;-78
2022/10/04 10:54:29;;;;;;;6.85;3.28;;;;;;;;;;10560835;28;20046;-77
2022/10/04 10:59:59;;;;;;;6.07;3.00;;;;;;;;;;10545219;28;20140;-78
2022/10/04 11:05:18;;;;;;;6.15;3.47;;;;;;;;;;10522626;28;20075;-77
2022/10/04 11:10:42;;;;;;;5.82;2.78;;;;;;;;;;10564728;28;20087;-79
2022/10/04 11:16:05;;;;;;;4.85;2.67;;;;;;;;;;10562824;28;20039;-78
2022/10/04 11:21:20;;;;;;;4.85;2.50;;;;;;;;;;10551316;28;20051;-77
2022/10/04 11:26:45;;;;;;;5.43;2.50;;;;;;;;;;10559249;28;20477;-77
2022/10/04 11:32:12;;;;;;;4.68;2.30;;;;;;;;;;10563947;28;20035;-77
2022/10/04 11:37:21;;;;;;;5.50;2.60;;;;;;;;;;10517670;28;20040;-77
2022/10/04 11:42:28;;;;;;;4.05;2.50;;;;;;;;;;10556052;28;20396;-77
2022/10/04 11:47:39;;;;;;;5.25;2.83;;;;;;;;;;10560311;28;20489;-78
2022/10/04 11:53:10;;;;;;;5.97;2.50;;;;;;;;;;10548553;28;20070;-78
2022/10/04 11:58:17;;;;;;;3.50;2.05;;;;;;;;;;10523426;28;20331;-78
2022/10/04 12:03:32;;;;;;;6.43;2.78;;;;;;;;;;10557885;28;20074;-75
2022/10/04 12:08:47;;;;;;;2.80;2.45;;;;;;;;;;10544013;28;20069;-76
2022/10/04 12:14:08;;;;;;;3.03;2.50;;;;;;;;;;10553531;28;20040;-76
2022/10/04 12:19:41;;;;;;;6.57;2.58;;;;;;;;;;10562889;28;20039;-77
2022/10/04 12:25:08;;;;;;;6.03;2.72;;;;;;;;;;10497764;28;20648;-77
2022/10/04 12:30:19;;;;;;;3.97;2.20;;;;;;;;;;10560250;28;20262;-77
2022/10/04 12:35:26;;;;;;;4.32;2.38;;;;;;;;;;10550889;28;20040;-77
2022/10/04 12:40:32;;;;;;;6.68;2.28;;;;;;;;;;10556272;28;20400;-77
2022/10/04 12:45:44;;;;;;;5.47;2.70;;;;;;;;;;10549200;28;20123;-76
2022/10/04 12:50:52;;;;;;;6.35;2.30;;;;;;;;;;10559600;28;20063;-77
2022/10/04 12:56:07;;;;;;;4.65;2.40;;;;;;;;;;10551693;28;20078;-77
2022/10/04 13:01:15;;;;;;;3.53;2.35;;;;;;;;;;10552272;28;20036;-77
2022/10/04 13:06:22;;;;;;;3.65;2.50;;;;;;;;;;10560672;28;20055;-77
2022/10/04 13:11:33;;;;;;;3.58;2.92;;;;;;;;;;10561549;28;20050;-77
2022/10/04 13:16:44;;;;;;;4.32;2.55;;;;;;;;;;10565984;28;20055;-77
2022/10/04 13:22:18;;;;;;;3.35;2.22;;;;;;;;;;10564856;28;20036;-76
2022/10/04 13:27:46;;;;;;;5.65;2.70;;;;;;;;;;10561447;28;20048;-77
2022/10/04 13:32:56;;;;;;;6.03;2.65;;;;;;;;;;10566804;28;20473;-77
2022/10/04 13:38:12;;;;;;;4.00;2.40;;;;;;;;;;10559168;28;20073;-77
2022/10/04 13:43:33;;;;;;;4.20;2.25;;;;;;;;;;10577194;27;20044;-77
2022/10/04 13:48:44;;;;;;;4.03;2.30;;;;;;;;;;10564438;27;20054;-77
2022/10/04 13:59:17;;;;;;;2.72;2.00;;;;;;;;;;10557595;28;20123;-77
2022/10/04 14:04:35;;;;;;;2.42;1.70;;;;;;;;;;10552297;28;20044;-77
2022/10/04 14:09:52;;;;;;;5.82;2.30;;;;;;;;;;10572815;28;20427;-77
2022/10/04 14:15:06;;;;;;;2.00;1.80;;;;;;;;;;10555822;28;20059;-76
2022/10/04 14:20:23;;;;;;;3.33;2.05;;;;;;;;;;10555346;28;20062;-76
2022/10/04 14:25:44;;;;;;;3.47;2.08;;;;;;;;;;10559277;28;20051;-77
2022/10/04 14:30:57;;;;;;;3.47;1.90;;;;;;;;;;10563893;27;20058;-77
2022/10/04 14:36:18;;;;;;;4.90;2.35;;;;;;;;;;10555565;28;20485;-77
2022/10/04 14:41:44;;;;;;;2.55;1.60;;;;;;;;;;10553750;28;20096;-77
2022/10/04 14:46:56;;;;;;;3.60;1.88;;;;;;;;;;10552940;28;20039;-77
2022/10/04 14:52:07;;;;;;;3.28;1.50;;;;;;;;;;10565118;28;20035;-78
2022/10/04 14:57:13;;;;;;;6.70;1.98;;;;;;;;;;10555347;27;20089;-77
2022/10/04 15:02:49;;;;;;;2.80;1.40;;;;;;;;;;10567045;28;20042;-77
2022/10/04 15:07:55;;;;;;;3.17;1.40;;;;;;;;;;10567895;27;20090;-77
2022/10/04 15:13:02;;;;;;;6.07;3.72;;;;;;;;;;10566763;28;20043;-77
2022/10/04 15:18:26;;;;;;;5.15;1.70;;;;;;;;;;10552982;28;20423;-75
2022/10/04 15:23:36;;;;;;;2.58;1.80;;;;;;;;;;10560136;28;20350;-77
2022/10/04 15:28:46;;;;;;;3.55;1.70;;;;;;;;;;10573626;27;20230;-77
2022/10/04 15:33:57;;;;;;;3.83;1.83;;;;;;;;;;10562024;27;20051;-78
2022/10/04 15:39:06;;;;;;;4.07;1.70;;;;;;;;;;10561706;27;20147;-76
2022/10/04 15:44:17;;;;;;;4.70;1.65;;;;;;;;;;10554211;28;20077;-77
2022/10/04 15:49:30;;;;;;;4.65;1.60;;;;;;;;;;10565517;27;20123;-76
2022/10/04 15:54:46;;;;;;;2.80;1.48;;;;;;;;;;10534195;28;20039;-76
2022/10/04 15:59:52;;;;;;;2.75;1.60;;;;;;;;;;10540239;28;20047;-76
2022/10/04 16:05:03;;;;;;;6.22;1.98;;;;;;;;;;10556303;27;20437;-76
2022/10/04 16:10:14;;;;;;;3.97;1.60;;;;;;;;;;10562326;27;20625;-78
2022/10/04 16:15:19;;;;;;;5.50;2.03;;;;;;;;;;10563723;28;20032;-77
2022/10/04 16:20:39;;;;;;;3.65;1.85;;;;;;;;;;10556398;28;20040;-77
2022/10/04 16:25:46;;;;;;;5.60;2.10;;;;;;;;;;10554104;28;20052;-76
2022/10/04 16:31:10;;;;;;;8.30;2.40;;;;;;;;;;10532140;28;20036;-77
2022/10/04 16:36:14;;;;;;;10.93;2.50;;;;;;;;;;10530729;28;20050;-76
2022/10/04 16:41:29;;;;;;;5.40;2.65;;;;;;;;;;10543186;28;20712;-76
2022/10/04 16:46:36;;;;;;;9.45;4.10;;;;;;;;;;10527517;28;20044;-76
2022/10/04 16:51:55;;;;;;;10.05;4.00;;;;;;;;;;10551198;28;20035;-76
2022/10/04 16:57:14;;;;;;;9.15;4.00;;;;;;;;;;10559206;27;20047;-75
2022/10/04 17:02:35;;;;;;;7.35;3.20;;;;;;;;;;10568583;28;20139;-76
2022/10/04 17:07:48;;;;;;;7.55;3.10;;;;;;;;;;10564587;27;20055;-75
2022/10/04 17:13:01;;;;;;;9.65;3.88;;;;;;;;;;10569266;27;20042;-77
2022/10/04 17:18:12;;;;;;;6.95;3.40;;;;;;;;;;10545600;28;20130;-77
2022/10/04 17:23:24;;;;;;;8.40;3.55;;;;;;;;;;10583146;27;20146;-75
2022/10/04 17:28:34;;;;;;;9.52;3.58;;;;;;;;;;10576277;27;20409;-74
2022/10/04 17:33:46;;;;;;;8.27;3.50;;;;;;;;;;10552700;27;20487;-76
2022/10/04 17:38:56;;;;;;;11.20;3.53;;;;;;;;;;10570735;27;20071;-76
2022/10/04 17:44:13;;;;;;;9.98;4.20;;;;;;;;;;10566983;28;20118;-75
2022/10/04 18:00:09;;;;;;;9.07;3.65;;;;;;;;;;10565816;28;20048;-78
2022/10/04 18:05:16;;;;;;;9.30;3.47;;;;;;;;;;10555059;28;20051;-76
2022/10/04 18:10:23;;;;;;;8.77;3.90;;;;;;;;;;10549622;27;20498;-77
2022/10/04 18:15:30;;;;;;;10.13;3.85;;;;;;;;;;10562711;28;20134;-76
2022/10/04 18:20:34;;;;;;;6.53;3.50;;;;;;;;;;10548929;27;20055;-75
2022/10/04 18:25:40;;;;;;;10.30;3.95;;;;;;;;;;10555433;27;20048;-76
2022/10/04 18:30:57;;;;;;;16.45;5.22;;;;;;;;;;10572467;27;20075;-79
2022/10/04 18:36:06;;;;;;;9.10;4.68;;;;;;;;;;10568289;27;20069;-77
2022/10/04 18:41:19;;;;;;;10.98;4.57;;;;;;;;;;10549009;28;20035;-79
2022/10/04 18:46:24;;;;;;;6.28;3.38;;;;;;;;;;10573463;27;20067;-78
2022/10/04 18:51:29;;;;;;;10.98;4.00;;;;;;;;;;10571877;28;20437;-77
2022/10/04 18:56:33;;;;;;;10.80;5.18;;;;;;;;;;10568806;27;20046;-76
2022/10/04 19:02:02;;;;;;;12.65;5.43;;;;;;;;;;10570219;27;20484;-76
2022/10/04 19:07:09;;;;;;;9.57;4.53;;;;;;;;;;10571187;28;20463;-76
2022/10/04 19:12:15;;;;;;;11.98;5.15;;;;;;;;;;10567377;27;20040;-76
2022/10/04 19:17:26;;;;;;;12.02;5.28;;;;;;;;;;10562950;27;20046;-77
2022/10/04 19:22:40;;;;;;;10.85;4.40;;;;;;;;;;10562116;27;20117;-78
2022/10/04 19:27:48;;;;;;;11.52;5.13;;;;;;;;;;10563045;27;20392;-79
2022/10/04 19:33:07;;;;;;;16.77;5.93;;;;;;;;;;10567934;27;20108;-83
2022/10/04 19:38:20;;;;;;;11.88;4.93;;;;;;;;;;10566880;28;20156;-80
2022/10/04 19:43:32;;;;;;;11.32;5.18;;;;;;;;;;10563363;27;20055;-81
2022/10/04 19:48:41;;;;;;;5.03;2.78;;;;;;;;;;10564560;28;20044;-78
2022/10/04 19:53:44;;;;;;;9.13;4.50;;;;;;;;;;10562745;27;20085;-79
2022/10/04 19:58:53;;;;;;;9.38;3.83;;;;;;;;;;10552798;27;20054;-82
2022/10/04 20:09:25;;;;;;;8.90;4.50;;;;;;;;;;10570743;28;20109;-77
2022/10/04 20:14:52;;;;;;;15.40;5.75;;;;;;;;;;10568802;28;20126;-77
2022/10/04 20:19:56;;;;;;;11.18;4.45;;;;;;;;;;10569226;28;20055;-78
2022/10/04 20:24:59;;;;;;;;;;;;;;;;;;10568747;27;20050;-76
2022/10/04 20:30:04;;;;;;;9.52;4.93;;;;;;;;;;10575340;28;19919;-78
2022/10/04 20:35:10;;;;;;;5.07;2.50;;;;;;;;;;10574611;27;20058;-77
2022/10/04 20:40:36;;;;;;;11.18;3.63;;;;;;;;;;10552763;28;20335;-76
2022/10/04 20:45:44;;;;;;;9.63;4.57;;;;;;;;;;10555926;27;20044;-76
2022/10/04 20:50:49;;;;;;;13.05;4.38;;;;;;;;;;10553079;27;20126;-76
2022/10/04 20:56:07;;;;;;;6.43;2.67;;;;;;;;;;10563805;27;20038;-76
2022/10/04 21:01:38;;;;;;;14.43;6.28;;;;;;;;;;10575262;28;20050;-76
2022/10/04 21:06:52;;;;;;;13.93;5.53;;;;;;;;;;10572154;28;20121;-76
2022/10/04 21:11:56;;;;;;;8.05;3.78;;;;;;;;;;10570037;28;20214;-77
2022/10/04 21:17:00;;;;;;;13.27;5.43;;;;;;;;;;10552417;27;20686;-77
2022/10/04 21:22:06;;;;;;;13.98;5.32;;;;;;;;;;10571315;27;20484;-78
2022/10/04 21:27:10;;;;;;;9.00;4.53;;;;;;;;;;10571244;27;20449;-78
2022/10/04 21:32:12;;;;;;;;;;;;;;;;;;10572735;27;20400;-77
2022/10/04 21:37:17;;;;;;;12.73;4.65;;;;;;;;;;10571949;27;20277;-76
2022/10/04 21:42:23;;;;;;;11.30;4.65;;;;;;;;;;10572781;27;20085;-77
2022/10/04 21:47:26;;;;;;;14.52;5.35;;;;;;;;;;10564829;27;20059;-77
2022/10/04 21:52:37;;;;;;;12.27;4.57;;;;;;;;;;10571392;27;20407;-76
2022/10/04 21:57:41;;;;;;;10.10;4.80;;;;;;;;;;10567388;27;20039;-77
2022/10/04 22:02:44;;;;;;;8.27;3.42;;;;;;;;;;10569279;27;20039;-76
2022/10/04 22:07:48;;;;;;;10.10;4.43;;;;;;;;;;10544149;28;20111;-76
2022/10/04 22:12:55;;;;;;;;;;;;;;;;;;10565079;27;20476;-77
2022/10/04 22:17:58;;;;;;;9.38;4.00;;;;;;;;;;10569569;28;19923;-77
2022/10/04 22:23:03;;;;;;;10.50;4.03;;;;;;;;;;10565513;27;20040;-77
2022/10/04 22:28:13;;;;;;;7.53;3.90;;;;;;;;;;10569907;27;20555;-76
2022/10/04 22:33:31;;;;;;;11.18;4.20;;;;;;;;;;10561088;27;20078;-77
2022/10/04 22:38:41;;;;;;;7.20;3.35;;;;;;;;;;10565891;28;20592;-77
2022/10/04 22:43:44;;;;;;;9.32;3.53;;;;;;;;;;10564512;27;20040;-77
2022/10/04 22:48:47;;;;;;;10.52;3.72;;;;;;;;;;10561993;27;20039;-77
2022/10/04 22:53:53;;;;;;;7.30;3.47;;;;;;;;;;10562802;27;20145;-77
2022/10/04 22:58:57;;;;;;;7.60;3.38;;;;;;;;;;10566227;28;20254;-76
2022/10/04 23:04:00;;;;;;;6.30;3.47;;;;;;;;;;10563353;27;20185;-76
2022/10/04 23:09:04;;;;;;;7.10;3.58;;;;;;;;;;10537673;28;20046;-76
2022/10/04 23:14:07;;;;;;;8.70;3.90;;;;;;;;;;10565464;27;20056;-74
2022/10/04 23:19:11;;;;;;;10.40;3.28;;;;;;;;;;10562919;28;20074;-75
2022/10/04 23:24:16;;;;;;;9.93;3.63;;;;;;;;;;10566655;27;20415;-75
2022/10/04 23:29:22;;;;;;;7.20;3.28;;;;;;;;;;10567870;27;20316;-76
2022/10/04 23:34:27;;;;;;;5.00;2.58;;;;;;;;;;10571747;27;20028;-75
2022/10/04 23:39:32;;;;;;;7.00;3.20;;;;;;;;;;10562339;28;20051;-77
2022/10/04 23:44:36;;;;;;;5.70;3.00;;;;;;;;;;10564934;27;20040;-77
2022/10/04 23:49:39;;;;;;;8.93;3.45;;;;;;;;;;10554717;28;20043;-76
2022/10/04 23:54:43;;;;;;;8.43;3.15;;;;;;;;;;10559043;27;20032;-76
2022/10/04 23:59:46;;;;;;;8.35;3.20;;;;;;;;;;10564051;28;20044;-77
